createdAt,value
2023-05-02T00:00:03.177Z,1009.66
2023-05-02T00:01:03.352Z,1009.64
2023-05-02T00:02:02.715Z,1009.68
2023-05-02T00:03:02.622Z,1009.65
2023-05-02T00:04:02.469Z,1009.65
2023-05-02T00:05:02.124Z,1009.70
2023-05-02T00:06:02.113Z,1009.72
2023-05-02T00:07:01.990Z,1009.67
2023-05-02T00:08:02.012Z,1009.69
2023-05-02T00:09:01.963Z,1009.71
2023-05-02T00:10:02.151Z,1009.72
2023-05-02T00:11:01.908Z,1009.72
2023-05-02T00:12:01.885Z,1009.73
2023-05-02T00:13:01.814Z,1009.72
2023-05-02T00:14:01.884Z,1009.73
2023-05-02T00:15:01.920Z,1009.80
2023-05-02T00:16:02.082Z,1009.78
2023-05-02T00:17:02.417Z,1009.75
2023-05-02T00:18:02.333Z,1009.72
2023-05-02T00:19:02.397Z,1009.74
2023-05-02T00:20:02.328Z,1009.76
2023-05-02T00:21:02.257Z,1009.76
2023-05-02T00:22:02.178Z,1009.73
2023-05-02T00:23:02.151Z,1009.74
2023-05-02T00:24:02.553Z,1009.71
2023-05-02T00:25:02.499Z,1009.71
2023-05-02T00:26:02.566Z,1009.68
2023-05-02T00:27:02.607Z,1009.69
2023-05-02T00:28:02.564Z,1009.69
2023-05-02T00:29:02.788Z,1009.67
2023-05-02T00:30:03.000Z,1009.69
2023-05-02T00:31:02.949Z,1009.70
2023-05-02T00:32:03.021Z,1009.69
2023-05-02T00:33:03.081Z,1009.74
2023-05-02T00:34:03.002Z,1009.77
2023-05-02T00:35:02.985Z,1009.76
2023-05-02T00:36:02.923Z,1009.78
2023-05-02T00:37:02.382Z,1009.80
2023-05-02T00:38:02.108Z,1009.81
2023-05-02T00:39:02.366Z,1009.80
2023-05-02T00:40:02.386Z,1009.81
2023-05-02T00:41:02.308Z,1009.77
2023-05-02T00:42:02.012Z,1009.79
2023-05-02T00:43:01.899Z,1009.77
2023-05-02T00:44:01.893Z,1009.80
2023-05-02T00:45:01.886Z,1009.85
2023-05-02T00:46:01.946Z,1009.80
2023-05-02T00:47:02.449Z,1009.80
2023-05-02T00:48:02.448Z,1009.81
2023-05-02T00:49:02.732Z,1009.82
2023-05-02T00:50:03.027Z,1009.84
2023-05-02T00:51:02.802Z,1009.87
2023-05-02T00:52:02.658Z,1009.82
2023-05-02T00:53:02.731Z,1009.82
2023-05-02T00:54:02.695Z,1009.81
2023-05-02T00:55:02.778Z,1009.79
2023-05-02T00:56:02.798Z,1009.84
2023-05-02T00:57:02.817Z,1009.86
2023-05-02T00:58:02.778Z,1009.85
2023-05-02T00:59:03.178Z,1009.83
2023-05-02T01:00:02.861Z,1009.88
2023-05-02T01:01:02.968Z,1009.89
2023-05-02T01:02:02.006Z,1009.89
2023-05-02T01:03:02.181Z,1009.91
2023-05-02T01:04:02.507Z,1009.89
2023-05-02T01:05:02.189Z,1009.90
2023-05-02T01:06:02.297Z,1009.93
2023-05-02T01:07:01.938Z,1009.92
2023-05-02T01:08:02.063Z,1009.89
2023-05-02T01:09:02.014Z,1009.91
2023-05-02T01:10:01.940Z,1009.92
2023-05-02T01:11:02.077Z,1009.96
2023-05-02T01:12:02.039Z,1009.97
2023-05-02T01:13:02.009Z,1009.98
2023-05-02T01:14:01.988Z,1009.97
2023-05-02T01:15:01.958Z,1009.99
2023-05-02T01:16:01.916Z,1010.00
2023-05-02T01:17:02.777Z,1010.00
2023-05-02T01:18:02.404Z,1010.01
2023-05-02T01:19:02.439Z,1010.01
2023-05-02T01:20:02.661Z,1010.01
2023-05-02T01:21:02.317Z,1009.99
2023-05-02T01:22:02.046Z,1010.00
2023-05-02T01:23:02.214Z,1010.04
2023-05-02T01:24:02.228Z,1010.03
2023-05-02T01:25:02.228Z,1010.00
2023-05-02T01:26:02.225Z,1010.05
2023-05-02T01:27:02.237Z,1010.06
2023-05-02T01:28:02.243Z,1010.09
2023-05-02T01:29:02.180Z,1010.11
2023-05-02T01:30:02.349Z,1010.09
2023-05-02T01:31:02.274Z,1010.10
2023-05-02T01:32:02.292Z,1010.12
2023-05-02T01:33:02.479Z,1010.14
2023-05-02T01:34:02.259Z,1010.19
2023-05-02T01:35:02.262Z,1010.21
2023-05-02T01:36:02.271Z,1010.18
2023-05-02T01:37:03.147Z,1010.19
2023-05-02T01:38:02.697Z,1010.20
2023-05-02T01:39:02.769Z,1010.24
2023-05-02T01:40:02.970Z,1010.27
2023-05-02T01:41:03.028Z,1010.29
2023-05-02T01:42:02.085Z,1010.28
2023-05-02T01:43:01.898Z,1010.33
2023-05-02T01:44:01.806Z,1010.29
2023-05-02T01:45:01.944Z,1010.31
2023-05-02T01:46:02.160Z,1010.35
2023-05-02T01:47:02.220Z,1010.33
2023-05-02T01:48:01.816Z,1010.33
2023-05-02T01:49:02.270Z,1010.35
2023-05-02T01:50:02.538Z,1010.34
2023-05-02T01:51:01.950Z,1010.37
2023-05-02T01:52:02.682Z,1010.34
2023-05-02T01:53:02.802Z,1010.30
2023-05-02T01:54:02.282Z,1010.29
2023-05-02T01:55:02.649Z,1010.28
2023-05-02T01:56:02.671Z,1010.31
2023-05-02T01:57:02.917Z,1010.34
2023-05-02T01:58:02.928Z,1010.33
2023-05-02T01:59:02.951Z,1010.36
2023-05-02T02:00:03.216Z,1010.38
2023-05-02T02:01:02.554Z,1010.37
2023-05-02T02:02:02.943Z,1010.37
2023-05-02T02:03:02.978Z,1010.40
2023-05-02T02:04:03.047Z,1010.44
2023-05-02T02:05:03.097Z,1010.50
2023-05-02T02:06:03.054Z,1010.49
2023-05-02T02:07:02.810Z,1010.51
2023-05-02T02:08:02.967Z,1010.54
2023-05-02T02:09:02.654Z,1010.51
2023-05-02T02:10:02.750Z,1010.54
2023-05-02T02:11:02.515Z,1010.55
2023-05-02T02:12:03.074Z,1010.51
2023-05-02T02:13:03.053Z,1010.54
2023-05-02T02:14:03.073Z,1010.53
2023-05-02T02:15:03.324Z,1010.52
2023-05-02T02:16:03.006Z,1010.57
2023-05-02T02:17:03.778Z,1010.56
2023-05-02T02:18:03.799Z,1010.55
2023-05-02T02:19:03.589Z,1010.60
2023-05-02T02:20:03.588Z,1010.59
2023-05-02T02:21:03.586Z,1010.59
2023-05-02T02:22:03.482Z,1010.58
2023-05-02T02:23:03.333Z,1010.58
2023-05-02T02:24:03.372Z,1010.55
2023-05-02T02:25:03.452Z,1010.58
2023-05-02T02:26:03.025Z,1010.60
2023-05-02T02:27:03.779Z,1010.63
2023-05-02T02:28:03.587Z,1010.63
2023-05-02T02:29:03.436Z,1010.61
2023-05-02T02:30:03.515Z,1010.62
2023-05-02T02:31:03.624Z,1010.62
2023-05-02T02:32:03.450Z,1010.65
2023-05-02T02:33:03.340Z,1010.65
2023-05-02T02:34:03.303Z,1010.68
2023-05-02T02:35:03.299Z,1010.69
2023-05-02T02:36:03.267Z,1010.70
2023-05-02T02:37:02.983Z,1010.73
2023-05-02T02:38:03.118Z,1010.74
2023-05-02T02:39:03.478Z,1010.75
2023-05-02T02:40:03.501Z,1010.81
2023-05-02T02:41:02.947Z,1010.80
2023-05-02T02:42:03.247Z,1010.84
2023-05-02T02:43:03.741Z,1010.83
2023-05-02T02:44:03.185Z,1010.86
2023-05-02T02:45:03.394Z,1010.83
2023-05-02T02:46:03.674Z,1010.85
2023-05-02T02:47:02.996Z,1010.84
2023-05-02T02:48:03.197Z,1010.84
2023-05-02T02:49:02.853Z,1010.87
2023-05-02T02:50:02.817Z,1010.88
2023-05-02T02:51:03.057Z,1010.91
2023-05-02T02:52:03.639Z,1010.88
2023-05-02T02:53:03.754Z,1010.89
2023-05-02T02:54:12.443Z,1010.86
2023-05-02T02:55:03.347Z,1010.89
2023-05-02T02:56:03.246Z,1010.88
2023-05-02T02:57:02.892Z,1010.89
2023-05-02T02:58:03.173Z,1010.90
2023-05-02T02:59:02.920Z,1010.93
2023-05-02T03:00:03.329Z,1010.91
2023-05-02T03:01:03.328Z,1010.95
2023-05-02T03:02:03.120Z,1010.96
2023-05-02T03:03:03.442Z,1010.98
2023-05-02T03:04:03.506Z,1010.98
2023-05-02T03:05:03.294Z,1011.01
2023-05-02T03:06:02.949Z,1011.01
2023-05-02T03:07:02.501Z,1011.02
2023-05-02T03:08:02.453Z,1011.06
2023-05-02T03:09:02.165Z,1011.07
2023-05-02T03:10:02.479Z,1011.08
2023-05-02T03:11:02.744Z,1011.07
2023-05-02T03:12:02.612Z,1011.08
2023-05-02T03:13:02.601Z,1011.11
2023-05-02T03:14:02.690Z,1011.11
2023-05-02T03:15:03.016Z,1011.17
2023-05-02T03:16:02.938Z,1011.15
2023-05-02T03:17:03.619Z,1011.18
2023-05-02T03:18:03.484Z,1011.17
2023-05-02T03:19:03.210Z,1011.17
2023-05-02T03:20:03.405Z,1011.13
2023-05-02T03:21:03.499Z,1011.16
2023-05-02T03:22:02.943Z,1011.18
2023-05-02T03:23:02.992Z,1011.19
2023-05-02T03:24:02.954Z,1011.23
2023-05-02T03:25:02.841Z,1011.22
2023-05-02T03:26:03.205Z,1011.21
2023-05-02T03:27:02.143Z,1011.21
2023-05-02T03:28:02.609Z,1011.22
2023-05-02T03:29:02.672Z,1011.26
2023-05-02T03:30:02.968Z,1011.28
2023-05-02T03:31:02.639Z,1011.30
2023-05-02T03:32:02.654Z,1011.25
2023-05-02T03:33:02.719Z,1011.24
2023-05-02T03:34:03.124Z,1011.25
2023-05-02T03:35:02.887Z,1011.24
2023-05-02T03:36:02.888Z,1011.26
2023-05-02T03:37:03.229Z,1011.32
2023-05-02T03:38:03.699Z,1011.31
2023-05-02T03:39:03.468Z,1011.35
2023-05-02T03:40:03.233Z,1011.36
2023-05-02T03:41:03.543Z,1011.36
2023-05-02T03:42:02.746Z,1011.34
2023-05-02T03:43:02.447Z,1011.35
2023-05-02T03:44:02.512Z,1011.36
2023-05-02T03:45:02.949Z,1011.36
2023-05-02T03:46:02.767Z,1011.37
2023-05-02T03:47:02.910Z,1011.36
2023-05-02T03:48:03.070Z,1011.37
2023-05-02T03:49:03.296Z,1011.38
2023-05-02T03:50:03.368Z,1011.40
2023-05-02T03:51:03.270Z,1011.38
2023-05-02T03:52:02.960Z,1011.36
2023-05-02T03:53:03.054Z,1011.36
2023-05-02T03:54:02.987Z,1011.32
2023-05-02T03:55:03.089Z,1011.34
2023-05-02T03:56:03.243Z,1011.35
2023-05-02T03:57:02.442Z,1011.35
2023-05-02T03:58:02.585Z,1011.36
2023-05-02T03:59:02.650Z,1011.36
2023-05-02T04:00:02.963Z,1011.36
2023-05-02T04:01:02.550Z,1011.36
2023-05-02T04:02:02.387Z,1011.38
2023-05-02T04:03:02.681Z,1011.39
2023-05-02T04:04:02.947Z,1011.42
2023-05-02T04:05:02.817Z,1011.39
2023-05-02T04:06:03.001Z,1011.42
2023-05-02T04:07:02.191Z,1011.43
2023-05-02T04:08:02.119Z,1011.45
2023-05-02T04:09:02.314Z,1011.44
2023-05-02T04:10:02.203Z,1011.40
2023-05-02T04:11:02.304Z,1011.43
2023-05-02T04:12:02.834Z,1011.43
2023-05-02T04:13:02.506Z,1011.42
2023-05-02T04:14:03.135Z,1011.43
2023-05-02T04:15:03.057Z,1011.45
2023-05-02T04:16:02.517Z,1011.48
2023-05-02T04:17:02.547Z,1011.58
2023-05-02T04:18:02.502Z,1011.50
2023-05-02T04:19:02.046Z,1011.52
2023-05-02T04:20:05.054Z,1011.55
2023-05-02T04:21:02.380Z,1011.56
2023-05-02T04:22:02.813Z,1011.59
2023-05-02T04:23:02.766Z,1011.55
2023-05-02T04:24:02.329Z,1011.54
2023-05-02T04:25:02.509Z,1011.56
2023-05-02T04:26:02.962Z,1011.56
2023-05-02T04:27:02.865Z,1011.61
2023-05-02T04:28:02.398Z,1011.60
2023-05-02T04:29:02.784Z,1011.63
2023-05-02T04:30:03.154Z,1011.67
2023-05-02T04:31:02.943Z,1011.66
2023-05-02T04:32:01.894Z,1011.68
2023-05-02T04:33:02.300Z,1011.68
2023-05-02T04:34:01.822Z,1011.70
2023-05-02T04:35:02.015Z,1011.71
2023-05-02T04:36:02.258Z,1011.72
2023-05-02T04:37:02.680Z,1011.74
2023-05-02T04:38:02.804Z,1011.76
2023-05-02T04:39:03.041Z,1011.79
2023-05-02T04:40:02.718Z,1011.81
2023-05-02T04:41:09.346Z,1011.84
2023-05-02T04:42:01.974Z,1011.83
2023-05-02T04:43:01.990Z,1011.84
2023-05-02T04:44:01.876Z,1011.88
2023-05-02T04:45:02.186Z,1011.91
2023-05-02T04:46:01.807Z,1011.92
2023-05-02T04:47:02.571Z,1011.94
2023-05-02T04:48:02.283Z,1011.94
2023-05-02T04:49:02.744Z,1011.98
2023-05-02T04:50:02.700Z,1011.93
2023-05-02T04:51:02.113Z,1011.96
2023-05-02T04:52:02.723Z,1011.97
2023-05-02T04:53:02.461Z,1012.02
2023-05-02T04:54:02.664Z,1012.02
2023-05-02T04:55:03.033Z,1012.04
2023-05-02T04:56:02.742Z,1012.09
2023-05-02T04:57:02.477Z,1012.06
2023-05-02T04:58:02.380Z,1012.09
2023-05-02T04:59:02.243Z,1012.10
2023-05-02T05:00:02.391Z,1012.08
2023-05-02T05:01:02.325Z,1012.14
2023-05-02T05:02:02.604Z,1012.11
2023-05-02T05:03:02.563Z,1012.15
2023-05-02T05:04:03.030Z,1012.10
2023-05-02T05:05:03.019Z,1012.13
2023-05-02T05:06:02.580Z,1012.13
2023-05-02T05:07:02.048Z,1012.10
2023-05-02T05:08:02.487Z,1012.16
2023-05-02T05:09:02.046Z,1012.15
2023-05-02T05:10:02.622Z,1012.16
2023-05-02T05:11:02.514Z,1012.16
2023-05-02T05:12:02.486Z,1012.20
2023-05-02T05:13:02.581Z,1012.22
2023-05-02T05:14:02.370Z,1012.22
2023-05-02T05:15:02.363Z,1012.25
2023-05-02T05:16:02.176Z,1012.25
2023-05-02T05:17:02.471Z,1012.27
2023-05-02T05:18:02.633Z,1012.29
2023-05-02T05:19:02.440Z,1012.32
2023-05-02T05:20:02.687Z,1012.33
2023-05-02T05:21:02.548Z,1012.36
2023-05-02T05:22:03.045Z,1012.39
2023-05-02T05:23:02.980Z,1012.37
2023-05-02T05:24:03.271Z,1012.38
2023-05-02T05:25:03.259Z,1012.39
2023-05-02T05:26:02.718Z,1012.38
2023-05-02T05:27:02.493Z,1012.38
2023-05-02T05:28:02.441Z,1012.38
2023-05-02T05:29:02.284Z,1012.39
2023-05-02T05:30:02.658Z,1012.42
2023-05-02T05:31:02.311Z,1012.44
2023-05-02T05:32:02.310Z,1012.44
2023-05-02T05:33:02.224Z,1012.43
2023-05-02T05:34:02.394Z,1012.46
2023-05-02T05:35:02.634Z,1012.49
2023-05-02T05:36:02.370Z,1012.46
2023-05-02T05:37:02.755Z,1012.46
2023-05-02T05:38:03.102Z,1012.47
2023-05-02T05:39:03.084Z,1012.48
2023-05-02T05:40:03.191Z,1012.47
2023-05-02T05:41:02.582Z,1012.48
2023-05-02T05:42:02.043Z,1012.46
2023-05-02T05:43:02.081Z,1012.51
2023-05-02T05:44:02.519Z,1012.55
2023-05-02T05:45:02.170Z,1012.55
2023-05-02T05:46:01.974Z,1012.56
2023-05-02T05:47:02.629Z,1012.55
2023-05-02T05:48:02.436Z,1012.59
2023-05-02T05:49:02.724Z,1012.60
2023-05-02T05:50:02.738Z,1012.64
2023-05-02T05:51:02.132Z,1012.63
2023-05-02T05:52:02.913Z,1012.65
2023-05-02T05:53:02.585Z,1012.70
2023-05-02T05:54:02.558Z,1012.72
2023-05-02T05:55:02.625Z,1012.74
2023-05-02T05:56:02.525Z,1012.72
2023-05-02T05:57:02.790Z,1012.79
2023-05-02T05:58:02.589Z,1012.76
2023-05-02T05:59:02.909Z,1012.75
2023-05-02T06:00:03.003Z,1012.79
2023-05-02T06:01:02.529Z,1012.80
2023-05-02T06:02:02.998Z,1012.81
2023-05-02T06:03:03.228Z,1012.86
2023-05-02T06:04:03.125Z,1012.85
2023-05-02T06:05:02.994Z,1012.87
2023-05-02T06:06:03.284Z,1012.89
2023-05-02T06:07:02.630Z,1012.91
2023-05-02T06:08:02.514Z,1012.93
2023-05-02T06:09:02.467Z,1012.93
2023-05-02T06:10:03.005Z,1012.93
2023-05-02T06:11:02.754Z,1012.91
2023-05-02T06:12:03.015Z,1012.94
2023-05-02T06:13:03.064Z,1012.98
2023-05-02T06:14:02.814Z,1012.94
2023-05-02T06:15:03.083Z,1012.98
2023-05-02T06:16:03.021Z,1012.94
2023-05-02T06:17:03.097Z,1012.96
2023-05-02T06:18:03.298Z,1012.94
2023-05-02T06:19:03.030Z,1012.95
2023-05-02T06:20:03.261Z,1012.97
2023-05-02T06:21:03.331Z,1012.97
2023-05-02T06:22:02.746Z,1012.98
2023-05-02T06:23:02.739Z,1012.95
2023-05-02T06:24:03.167Z,1012.97
2023-05-02T06:25:02.748Z,1012.99
2023-05-02T06:26:02.896Z,1013.00
2023-05-02T06:27:02.842Z,1013.06
2023-05-02T06:28:02.212Z,1013.07
2023-05-02T06:29:02.746Z,1013.10
2023-05-02T06:30:02.931Z,1013.04
2023-05-02T06:31:02.697Z,1013.05
2023-05-02T06:32:03.512Z,1013.13
2023-05-02T06:33:02.989Z,1013.11
2023-05-02T06:34:03.373Z,1013.14
2023-05-02T06:35:02.925Z,1013.14
2023-05-02T06:36:02.962Z,1013.13
2023-05-02T06:37:03.111Z,1013.17
2023-05-02T06:38:03.548Z,1013.16
2023-05-02T06:39:02.957Z,1013.17
2023-05-02T06:40:03.475Z,1013.21
2023-05-02T06:41:03.112Z,1013.21
2023-05-02T06:42:02.474Z,1013.23
2023-05-02T06:43:02.315Z,1013.23
2023-05-02T06:44:02.230Z,1013.26
2023-05-02T06:45:02.126Z,1013.32
2023-05-02T06:46:02.656Z,1013.31
2023-05-02T06:47:02.897Z,1013.35
2023-05-02T06:48:03.294Z,1013.34
2023-05-02T06:49:02.795Z,1013.36
2023-05-02T06:50:03.209Z,1013.41
2023-05-02T06:51:03.254Z,1013.42
2023-05-02T06:52:03.257Z,1013.43
2023-05-02T06:53:03.557Z,1013.44
2023-05-02T06:54:03.123Z,1013.41
2023-05-02T06:55:02.922Z,1013.44
2023-05-02T06:56:02.998Z,1013.47
2023-05-02T06:57:02.520Z,1013.45
2023-05-02T06:58:02.494Z,1013.48
2023-05-02T06:59:02.551Z,1013.48
2023-05-02T07:00:02.989Z,1013.51
2023-05-02T07:01:02.901Z,1013.50
2023-05-02T07:02:05.140Z,1013.48
2023-05-02T07:03:02.328Z,1013.51
2023-05-02T07:04:02.597Z,1013.54
2023-05-02T07:05:02.606Z,1013.53
2023-05-02T07:06:02.805Z,1013.52
2023-05-02T07:07:03.247Z,1013.55
2023-05-02T07:08:02.693Z,1013.56
2023-05-02T07:09:02.941Z,1013.59
2023-05-02T07:10:03.195Z,1013.58
2023-05-02T07:11:03.158Z,1013.55
2023-05-02T07:12:06.066Z,1013.54
2023-05-02T07:13:03.517Z,1013.56
2023-05-02T07:14:02.961Z,1013.59
2023-05-02T07:15:03.412Z,1013.58
2023-05-02T07:16:03.299Z,1013.56
2023-05-02T07:17:02.817Z,1013.61
2023-05-02T07:18:02.605Z,1013.64
2023-05-02T07:19:02.717Z,1013.62
2023-05-02T07:20:02.793Z,1013.61
2023-05-02T07:21:02.713Z,1013.67
2023-05-02T07:22:03.173Z,1013.69
2023-05-02T07:23:02.846Z,1013.70
2023-05-02T07:24:03.312Z,1013.65
2023-05-02T07:25:03.063Z,1013.67
2023-05-02T07:26:05.547Z,1013.69
2023-05-02T07:27:02.455Z,1013.70
2023-05-02T07:28:02.542Z,1013.74
2023-05-02T07:29:02.535Z,1013.71
2023-05-02T07:30:03.252Z,1013.73
2023-05-02T07:31:02.708Z,1013.73
2023-05-02T07:32:03.376Z,1013.74
2023-05-02T07:33:03.216Z,1013.80
2023-05-02T07:34:03.047Z,1013.78
2023-05-02T07:35:03.417Z,1013.76
2023-05-02T07:36:03.387Z,1013.81
2023-05-02T07:37:02.845Z,1013.80
2023-05-02T07:38:02.477Z,1013.78
2023-05-02T07:39:02.493Z,1013.85
2023-05-02T07:40:03.626Z,1013.85
2023-05-02T07:41:02.683Z,1013.85
2023-05-02T07:42:03.147Z,1013.87
2023-05-02T07:43:03.546Z,1013.83
2023-05-02T07:44:03.615Z,1013.85
2023-05-02T07:45:03.132Z,1013.88
2023-05-02T07:46:03.597Z,1013.85
2023-05-02T07:47:02.604Z,1013.88
2023-05-02T07:48:02.626Z,1013.88
2023-05-02T07:49:02.917Z,1013.93
2023-05-02T07:50:03.591Z,1013.90
2023-05-02T07:51:03.101Z,1013.97
2023-05-02T07:52:03.082Z,1013.96
2023-05-02T07:53:03.066Z,1013.94
2023-05-02T07:54:03.101Z,1014.01
2023-05-02T07:56:03.535Z,1013.95
2023-05-02T07:57:03.166Z,1014.02
2023-05-02T07:58:02.651Z,1013.97
2023-05-02T07:59:03.577Z,1014.01
2023-05-02T08:00:03.707Z,1014.07
2023-05-02T08:01:02.725Z,1014.10
2023-05-02T08:02:03.729Z,1014.09
2023-05-02T08:03:03.660Z,1014.10
2023-05-02T08:04:03.674Z,1014.11
2023-05-02T08:05:03.408Z,1014.10
2023-05-02T08:06:03.616Z,1014.14
2023-05-02T08:07:02.619Z,1014.12
2023-05-02T08:08:02.712Z,1014.09
2023-05-02T08:09:02.881Z,1014.13
2023-05-02T08:10:02.552Z,1014.18
2023-05-02T08:11:02.772Z,1014.12
2023-05-02T08:12:03.501Z,1014.19
2023-05-02T08:13:03.424Z,1014.16
2023-05-02T08:14:03.203Z,1014.14
2023-05-02T08:15:03.251Z,1014.16
2023-05-02T08:16:03.146Z,1014.17
2023-05-02T08:17:02.414Z,1014.20
2023-05-02T08:18:02.461Z,1014.16
2023-05-02T08:19:02.740Z,1014.22
2023-05-02T08:20:02.968Z,1014.21
2023-05-02T08:21:02.818Z,1014.22
2023-05-02T08:22:02.564Z,1014.22
2023-05-02T08:23:02.706Z,1014.22
2023-05-02T08:24:02.684Z,1014.25
2023-05-02T08:25:02.922Z,1014.24
2023-05-02T08:26:02.962Z,1014.27
2023-05-02T08:27:03.121Z,1014.32
2023-05-02T08:28:03.206Z,1014.33
2023-05-02T08:29:03.266Z,1014.35
2023-05-02T08:30:03.863Z,1014.40
2023-05-02T08:31:03.335Z,1014.39
2023-05-02T08:32:03.214Z,1014.44
2023-05-02T08:33:02.989Z,1014.41
2023-05-02T08:34:03.216Z,1014.36
2023-05-02T08:35:03.162Z,1014.40
2023-05-02T08:36:03.233Z,1014.37
2023-05-02T08:37:03.133Z,1014.40
2023-05-02T08:38:03.505Z,1014.40
2023-05-02T08:39:03.539Z,1014.37
2023-05-02T08:40:03.482Z,1014.41
2023-05-02T08:41:03.263Z,1014.40
2023-05-02T08:42:02.555Z,1014.43
2023-05-02T08:43:02.502Z,1014.42
2023-05-02T08:44:02.358Z,1014.39
2023-05-02T08:45:02.390Z,1014.43
2023-05-02T08:46:02.827Z,1014.44
2023-05-02T08:47:02.963Z,1014.46
2023-05-02T08:48:02.610Z,1014.43
2023-05-02T08:49:02.909Z,1014.43
2023-05-02T08:50:03.327Z,1014.46
2023-05-02T08:51:03.009Z,1014.49
2023-05-02T08:52:02.766Z,1014.48
2023-05-02T08:53:02.603Z,1014.49
2023-05-02T08:54:03.073Z,1014.51
2023-05-02T08:55:03.445Z,1014.54
2023-05-02T08:56:03.250Z,1014.53
2023-05-02T08:57:03.629Z,1014.59
2023-05-02T08:58:03.486Z,1014.56
2023-05-02T08:59:03.397Z,1014.60
2023-05-02T09:00:03.106Z,1014.65
2023-05-02T09:01:03.368Z,1014.67
2023-05-02T09:02:02.683Z,1014.66
2023-05-02T09:03:02.661Z,1014.69
2023-05-02T09:04:02.829Z,1014.70
2023-05-02T09:05:02.780Z,1014.72
2023-05-02T09:06:02.512Z,1014.74
2023-05-02T09:07:02.650Z,1014.78
2023-05-02T09:08:02.975Z,1014.78
2023-05-02T09:09:02.473Z,1014.76
2023-05-02T09:10:03.033Z,1014.82
2023-05-02T09:11:02.881Z,1014.81
2023-05-02T09:12:03.320Z,1014.85
2023-05-02T09:13:03.274Z,1014.87
2023-05-02T09:14:03.217Z,1014.94
2023-05-02T09:15:02.828Z,1014.93
2023-05-02T09:16:03.130Z,1014.87
2023-05-02T09:17:02.739Z,1014.92
2023-05-02T09:18:02.756Z,1014.93
2023-05-02T09:19:02.833Z,1014.95
2023-05-02T09:20:02.872Z,1014.95
2023-05-02T09:21:02.882Z,1014.98
2023-05-02T09:22:02.254Z,1015.00
2023-05-02T09:23:02.401Z,1014.99
2023-05-02T09:24:02.085Z,1015.01
2023-05-02T09:25:02.436Z,1014.99
2023-05-02T09:26:02.212Z,1015.02
2023-05-02T09:27:02.865Z,1015.04
2023-05-02T09:28:03.065Z,1015.01
2023-05-02T09:29:03.003Z,1015.05
2023-05-02T09:30:02.911Z,1015.02
2023-05-02T09:31:02.663Z,1015.03
2023-05-02T09:32:02.864Z,1015.05
2023-05-02T09:33:03.122Z,1015.00
2023-05-02T09:34:02.913Z,1015.05
2023-05-02T09:35:03.143Z,1015.06
2023-05-02T09:36:02.523Z,1015.05
2023-05-02T09:37:02.302Z,1015.04
2023-05-02T09:38:02.389Z,1015.05
2023-05-02T09:39:02.533Z,1015.03
2023-05-02T09:40:02.594Z,1015.07
2023-05-02T09:41:01.961Z,1015.07
2023-05-02T09:42:02.338Z,1015.11
2023-05-02T09:43:02.478Z,1015.13
2023-05-02T09:44:02.145Z,1015.08
2023-05-02T09:45:02.366Z,1015.14
2023-05-02T09:46:02.664Z,1015.11
2023-05-02T09:47:02.139Z,1015.12
2023-05-02T09:48:02.814Z,1015.13
2023-05-02T09:49:02.239Z,1015.11
2023-05-02T09:50:02.739Z,1015.15
2023-05-02T09:51:02.543Z,1015.12
2023-05-02T09:52:02.922Z,1015.13
2023-05-02T09:53:03.061Z,1015.07
2023-05-02T09:54:02.914Z,1015.14
2023-05-02T09:55:02.890Z,1015.14
2023-05-02T09:56:02.709Z,1015.12
2023-05-02T09:57:03.227Z,1015.15
2023-05-02T09:58:03.294Z,1015.16
2023-05-02T09:59:03.392Z,1015.21
2023-05-02T10:00:03.247Z,1015.20
2023-05-02T10:01:03.538Z,1015.22
2023-05-02T10:02:02.650Z,1015.27
2023-05-02T10:03:02.357Z,1015.28
2023-05-02T10:04:02.119Z,1015.27
2023-05-02T10:05:02.832Z,1015.27
2023-05-02T10:06:02.248Z,1015.26
2023-05-02T10:07:02.941Z,1015.32
2023-05-02T10:08:03.156Z,1015.30
2023-05-02T10:09:03.027Z,1015.31
2023-05-02T10:10:02.892Z,1015.31
2023-05-02T10:11:03.102Z,1015.36
2023-05-02T10:12:03.076Z,1015.35
2023-05-02T10:13:03.085Z,1015.41
2023-05-02T10:14:03.202Z,1015.39
2023-05-02T10:15:02.951Z,1015.40
2023-05-02T10:16:02.998Z,1015.41
2023-05-02T10:17:03.239Z,1015.41
2023-05-02T10:18:02.880Z,1015.42
2023-05-02T10:19:03.213Z,1015.43
2023-05-02T10:20:03.365Z,1015.47
2023-05-02T10:21:03.308Z,1015.46
2023-05-02T10:22:03.353Z,1015.46
2023-05-02T10:23:03.170Z,1015.44
2023-05-02T10:24:02.940Z,1015.46
2023-05-02T10:25:03.516Z,1015.56
2023-05-02T10:26:03.126Z,1015.53
2023-05-02T10:27:02.921Z,1015.54
2023-05-02T10:28:02.851Z,1015.54
2023-05-02T10:29:02.674Z,1015.57
2023-05-02T10:30:02.796Z,1015.58
2023-05-02T10:31:02.758Z,1015.62
2023-05-02T10:32:03.103Z,1015.62
2023-05-02T10:33:03.136Z,1015.63
2023-05-02T10:34:02.519Z,1015.67
2023-05-02T10:35:02.999Z,1015.67
2023-05-02T10:36:02.605Z,1015.69
2023-05-02T10:37:03.281Z,1015.68
2023-05-02T10:38:03.141Z,1015.62
2023-05-02T10:39:03.130Z,1015.66
2023-05-02T10:40:03.065Z,1015.70
2023-05-02T10:41:02.963Z,1015.73
2023-05-02T10:42:03.634Z,1015.76
2023-05-02T10:43:03.550Z,1015.77
2023-05-02T10:44:03.239Z,1015.75
2023-05-02T10:45:03.458Z,1015.77
2023-05-02T10:46:03.049Z,1015.79
2023-05-02T10:47:02.914Z,1015.74
2023-05-02T10:48:02.292Z,1015.77
2023-05-02T10:49:02.458Z,1015.77
2023-05-02T10:50:02.713Z,1015.78
2023-05-02T10:51:02.661Z,1015.80
2023-05-02T10:52:03.143Z,1015.77
2023-05-02T10:53:03.249Z,1015.79
2023-05-02T10:54:03.222Z,1015.76
2023-05-02T10:55:03.045Z,1015.77
2023-05-02T10:56:02.722Z,1015.70
2023-05-02T10:57:03.526Z,1015.72
2023-05-02T10:58:03.331Z,1015.72
2023-05-02T10:59:03.411Z,1015.73
2023-05-02T11:00:03.070Z,1015.75
2023-05-02T11:01:03.253Z,1015.76
2023-05-02T11:02:04.099Z,1015.79
2023-05-02T11:03:02.823Z,1015.74
2023-05-02T11:04:02.845Z,1015.77
2023-05-02T11:05:03.112Z,1015.75
2023-05-02T11:06:02.829Z,1015.69
2023-05-02T11:07:03.194Z,1015.73
2023-05-02T11:08:03.083Z,1015.73
2023-05-02T11:09:03.079Z,1015.73
2023-05-02T11:10:02.916Z,1015.71
2023-05-02T11:11:03.252Z,1015.73
2023-05-02T11:12:03.351Z,1015.71
2023-05-02T11:13:02.952Z,1015.73
2023-05-02T11:14:03.315Z,1015.73
2023-05-02T11:15:03.555Z,1015.70
2023-05-02T11:16:02.989Z,1015.71
2023-05-02T11:17:02.773Z,1015.73
2023-05-02T11:18:02.528Z,1015.73
2023-05-02T11:19:02.158Z,1015.70
2023-05-02T11:20:02.306Z,1015.76
2023-05-02T11:21:02.711Z,1015.73
2023-05-02T11:22:03.116Z,1015.71
2023-05-02T11:23:03.008Z,1015.72
2023-05-02T11:24:02.598Z,1015.71
2023-05-02T11:25:03.114Z,1015.71
2023-05-02T11:26:02.689Z,1015.72
2023-05-02T11:27:03.299Z,1015.75
2023-05-02T11:28:02.689Z,1015.74
2023-05-02T11:29:02.729Z,1015.71
2023-05-02T11:30:02.884Z,1015.77
2023-05-02T11:31:02.854Z,1015.76
2023-05-02T11:32:02.219Z,1015.76
2023-05-02T11:33:02.642Z,1015.76
2023-05-02T11:34:02.169Z,1015.76
2023-05-02T11:35:02.700Z,1015.75
2023-05-02T11:36:02.617Z,1015.77
2023-05-02T11:37:02.690Z,1015.73
2023-05-02T11:38:02.686Z,1015.76
2023-05-02T11:39:03.129Z,1015.72
2023-05-02T11:40:02.751Z,1015.77
2023-05-02T11:41:02.985Z,1015.76
2023-05-02T11:42:03.217Z,1015.73
2023-05-02T11:43:02.467Z,1015.77
2023-05-02T11:44:02.750Z,1015.77
2023-05-02T11:45:02.453Z,1015.74
2023-05-02T11:46:02.723Z,1015.77
2023-05-02T11:47:02.791Z,1015.75
2023-05-02T11:48:01.984Z,1015.71
2023-05-02T11:49:02.468Z,1015.71
2023-05-02T11:50:02.012Z,1015.72
2023-05-02T11:51:02.506Z,1015.74
2023-05-02T11:52:02.046Z,1015.71
2023-05-02T11:53:03.023Z,1015.73
2023-05-02T11:54:02.814Z,1015.71
2023-05-02T11:55:02.794Z,1015.71
2023-05-02T11:56:02.954Z,1015.72
2023-05-02T11:57:02.452Z,1015.72
2023-05-02T11:58:02.904Z,1015.67
2023-05-02T11:59:03.137Z,1015.69
2023-05-02T12:00:03.434Z,1015.70
2023-05-02T12:01:03.294Z,1015.74
2023-05-02T12:02:03.145Z,1015.75
2023-05-02T12:03:03.546Z,1015.75
2023-05-02T12:04:03.376Z,1015.81
2023-05-02T12:05:03.287Z,1015.80
2023-05-02T12:06:03.830Z,1015.80